Payerne Airport LSMP

Flugplatz Daten

Name: Payerne Airport

Ident: LSMP

Lat: 46,84320068

Long: 6,915060043

Platzhöhe: 1465 ft

IataCode:

City:

Metar

2021/08/02 09:20
LSMP 020920Z AUTO VRB01KT 9999NDV FEW022 SCT029 18/12 Q1018 RMK

Taf

2021/08/01 17:00
TAF LSMP 011625Z 0117/0223 VRB03KT 9999 FEW030 BKN060 PROB30
TEMPO 0210/0116 SHRA
Gewünschte Webcam nicht vorhanden? Dann fügen Sie eine hinzu. Sie wird dann so schnell wie möglich freigeschaltet
Url: Title: